sensor_id;sensor_type;location;lat;lon;timestamp;P1;durP1;ratioP1;P2;durP2;ratioP2
64959;SDS011;51487;52.266;10.542;2023-12-20T00:01:34;5.30;;;4.80;;
64959;SDS011;51487;52.266;10.542;2023-12-20T00:04:00;5.60;;;5.00;;
64959;SDS011;51487;52.266;10.542;2023-12-20T00:06:27;5.85;;;5.03;;
64959;SDS011;51487;52.266;10.542;2023-12-20T00:08:52;5.93;;;5.28;;
64959;SDS011;51487;52.266;10.542;2023-12-20T00:11:18;5.78;;;5.18;;
64959;SDS011;51487;52.266;10.542;2023-12-20T00:13:44;5.88;;;5.28;;
64959;SDS011;51487;52.266;10.542;2023-12-20T00:16:09;5.55;;;4.93;;
64959;SDS011;51487;52.266;10.542;2023-12-20T00:18:35;5.97;;;5.15;;
64959;SDS011;51487;52.266;10.542;2023-12-20T00:21:00;6.53;;;5.22;;
64959;SDS011;51487;52.266;10.542;2023-12-20T00:23:25;6.25;;;5.35;;
64959;SDS011;51487;52.266;10.542;2023-12-20T00:25:51;5.75;;;5.20;;
64959;SDS011;51487;52.266;10.542;2023-12-20T00:28:16;6.20;;;5.10;;
64959;SDS011;51487;52.266;10.542;2023-12-20T00:30:42;5.40;;;4.90;;
64959;SDS011;51487;52.266;10.542;2023-12-20T00:33:08;6.50;;;5.90;;
64959;SDS011;51487;52.266;10.542;2023-12-20T00:35:33;7.22;;;6.53;;
64959;SDS011;51487;52.266;10.542;2023-12-20T00:37:59;6.95;;;5.90;;
64959;SDS011;51487;52.266;10.542;2023-12-20T00:40:24;8.15;;;6.50;;
64959;SDS011;51487;52.266;10.542;2023-12-20T00:42:50;7.07;;;6.28;;
64959;SDS011;51487;52.266;10.542;2023-12-20T00:45:15;6.30;;;5.70;;
64959;SDS011;51487;52.266;10.542;2023-12-20T00:47:41;6.88;;;6.18;;
64959;SDS011;51487;52.266;10.542;2023-12-20T00:50:06;7.18;;;6.47;;
64959;SDS011;51487;52.266;10.542;2023-12-20T00:52:34;7.50;;;6.55;;
64959;SDS011;51487;52.266;10.542;2023-12-20T00:54:59;7.60;;;6.80;;
64959;SDS011;51487;52.266;10.542;2023-12-20T00:57:25;10.32;;;6.68;;
64959;SDS011;51487;52.266;10.542;2023-12-20T00:59:51;7.72;;;6.55;;
64959;SDS011;51487;52.266;10.542;2023-12-20T01:02:16;7.72;;;6.65;;
64959;SDS011;51487;52.266;10.542;2023-12-20T01:04:41;7.88;;;6.38;;
64959;SDS011;51487;52.266;10.542;2023-12-20T01:07:08;8.75;;;6.75;;
64959;SDS011;51487;52.266;10.542;2023-12-20T01:09:33;7.68;;;5.93;;
64959;SDS011;51487;52.266;10.542;2023-12-20T01:11:59;8.43;;;6.75;;
64959;SDS011;51487;52.266;10.542;2023-12-20T01:14:24;8.73;;;6.55;;
64959;SDS011;51487;52.266;10.542;2023-12-20T01:16:51;10.30;;;6.43;;
64959;SDS011;51487;52.266;10.542;2023-12-20T01:19:16;6.53;;;5.80;;
64959;SDS011;51487;52.266;10.542;2023-12-20T01:21:42;9.10;;;6.28;;
64959;SDS011;51487;52.266;10.542;2023-12-20T01:24:08;8.85;;;6.43;;
64959;SDS011;51487;52.266;10.542;2023-12-20T01:26:34;11.07;;;6.85;;
64959;SDS011;51487;52.266;10.542;2023-12-20T01:28:59;10.40;;;7.00;;
64959;SDS011;51487;52.266;10.542;2023-12-20T01:31:25;9.63;;;6.60;;
64959;SDS011;51487;52.266;10.542;2023-12-20T01:33:52;8.45;;;6.43;;
64959;SDS011;51487;52.266;10.542;2023-12-20T01:36:18;11.70;;;6.43;;
64959;SDS011;51487;52.266;10.542;2023-12-20T01:38:43;8.52;;;6.47;;
64959;SDS011;51487;52.266;10.542;2023-12-20T01:41:09;8.93;;;6.07;;
64959;SDS011;51487;52.266;10.542;2023-12-20T01:43:34;9.05;;;5.50;;
64959;SDS011;51487;52.266;10.542;2023-12-20T01:45:59;12.40;;;5.40;;
64959;SDS011;51487;52.266;10.542;2023-12-20T01:48:25;10.05;;;5.25;;
64959;SDS011;51487;52.266;10.542;2023-12-20T01:50:53;8.07;;;4.63;;
64959;SDS011;51487;52.266;10.542;2023-12-20T01:53:20;8.70;;;4.88;;
64959;SDS011;51487;52.266;10.542;2023-12-20T01:55:50;10.57;;;4.78;;
64959;SDS011;51487;52.266;10.542;2023-12-20T01:58:20;11.93;;;4.60;;
64959;SDS011;51487;52.266;10.542;2023-12-20T02:00:47;11.43;;;4.95;;
64959;SDS011;51487;52.266;10.542;2023-12-20T02:03:14;9.07;;;4.25;;
64959;SDS011;51487;52.266;10.542;2023-12-20T02:05:41;11.90;;;4.45;;
64959;SDS011;51487;52.266;10.542;2023-12-20T02:08:07;9.70;;;4.25;;
64959;SDS011;51487;52.266;10.542;2023-12-20T02:10:33;10.85;;;4.70;;
64959;SDS011;51487;52.266;10.542;2023-12-20T02:12:59;12.98;;;4.15;;
64959;SDS011;51487;52.266;10.542;2023-12-20T02:15:24;10.85;;;4.03;;
64959;SDS011;51487;52.266;10.542;2023-12-20T02:17:51;8.30;;;3.85;;
64959;SDS011;51487;52.266;10.542;2023-12-20T02:20:18;8.20;;;3.70;;
64959;SDS011;51487;52.266;10.542;2023-12-20T02:22:44;8.32;;;3.60;;
64959;SDS011;51487;52.266;10.542;2023-12-20T02:25:10;11.25;;;4.22;;
64959;SDS011;51487;52.266;10.542;2023-12-20T02:27:35;14.32;;;4.13;;
64959;SDS011;51487;52.266;10.542;2023-12-20T02:30:01;8.73;;;3.50;;
64959;SDS011;51487;52.266;10.542;2023-12-20T02:32:28;5.43;;;3.05;;
64959;SDS011;51487;52.266;10.542;2023-12-20T02:34:54;7.93;;;3.15;;
64959;SDS011;51487;52.266;10.542;2023-12-20T02:37:20;7.30;;;2.88;;
64959;SDS011;51487;52.266;10.542;2023-12-20T02:39:46;14.30;;;3.47;;
64959;SDS011;51487;52.266;10.542;2023-12-20T02:42:11;7.32;;;2.80;;
64959;SDS011;51487;52.266;10.542;2023-12-20T02:44:37;8.05;;;3.08;;
64959;SDS011;51487;52.266;10.542;2023-12-20T02:47:03;11.60;;;3.10;;
64959;SDS011;51487;52.266;10.542;2023-12-20T02:49:28;7.65;;;2.58;;
64959;SDS011;51487;52.266;10.542;2023-12-20T02:51:54;10.32;;;3.00;;
64959;SDS011;51487;52.266;10.542;2023-12-20T02:54:19;12.43;;;2.42;;
64959;SDS011;51487;52.266;10.542;2023-12-20T02:56:45;7.43;;;2.85;;
64959;SDS011;51487;52.266;10.542;2023-12-20T02:59:10;9.05;;;2.22;;
64959;SDS011;51487;52.266;10.542;2023-12-20T03:01:40;9.63;;;2.70;;
64959;SDS011;51487;52.266;10.542;2023-12-20T03:04:08;15.23;;;2.30;;
64959;SDS011;51487;52.266;10.542;2023-12-20T03:06:34;4.95;;;1.90;;
64959;SDS011;51487;52.266;10.542;2023-12-20T03:09:00;4.90;;;1.90;;
64959;SDS011;51487;52.266;10.542;2023-12-20T03:11:28;8.93;;;2.58;;
64959;SDS011;51487;52.266;10.542;2023-12-20T03:13:54;6.65;;;2.40;;
64959;SDS011;51487;52.266;10.542;2023-12-20T03:16:23;10.23;;;2.00;;
64959;SDS011;51487;52.266;10.542;2023-12-20T03:18:49;9.82;;;2.08;;
64959;SDS011;51487;52.266;10.542;2023-12-20T03:21:15;6.20;;;2.40;;
64959;SDS011;51487;52.266;10.542;2023-12-20T03:23:41;9.57;;;2.33;;
64959;SDS011;51487;52.266;10.542;2023-12-20T03:26:07;9.77;;;2.30;;
64959;SDS011;51487;52.266;10.542;2023-12-20T03:28:33;10.75;;;2.90;;
64959;SDS011;51487;52.266;10.542;2023-12-20T03:30:59;6.65;;;2.22;;
64959;SDS011;51487;52.266;10.542;2023-12-20T03:33:25;10.77;;;3.17;;
64959;SDS011;51487;52.266;10.542;2023-12-20T03:35:50;7.35;;;2.33;;
64959;SDS011;51487;52.266;10.542;2023-12-20T03:38:16;5.93;;;1.70;;
64959;SDS011;51487;52.266;10.542;2023-12-20T03:40:42;8.55;;;2.33;;
64959;SDS011;51487;52.266;10.542;2023-12-20T03:43:07;10.90;;;2.58;;
64959;SDS011;51487;52.266;10.542;2023-12-20T03:45:33;5.35;;;1.83;;
64959;SDS011;51487;52.266;10.542;2023-12-20T03:47:59;9.45;;;2.28;;
64959;SDS011;51487;52.266;10.542;2023-12-20T03:50:25;7.38;;;2.40;;
64959;SDS011;51487;52.266;10.542;2023-12-20T03:52:51;5.22;;;2.00;;
64959;SDS011;51487;52.266;10.542;2023-12-20T03:55:17;7.07;;;1.98;;
64959;SDS011;51487;52.266;10.542;2023-12-20T03:57:43;8.65;;;2.15;;
64959;SDS011;51487;52.266;10.542;2023-12-20T04:00:09;5.53;;;2.15;;
64959;SDS011;51487;52.266;10.542;2023-12-20T04:02:36;9.40;;;2.45;;
64959;SDS011;51487;52.266;10.542;2023-12-20T04:05:06;6.07;;;2.08;;
64959;SDS011;51487;52.266;10.542;2023-12-20T04:07:33;7.93;;;2.35;;
64959;SDS011;51487;52.266;10.542;2023-12-20T04:10:02;7.57;;;2.28;;
64959;SDS011;51487;52.266;10.542;2023-12-20T04:12:29;9.00;;;1.98;;
64959;SDS011;51487;52.266;10.542;2023-12-20T04:14:55;6.45;;;1.80;;
64959;SDS011;51487;52.266;10.542;2023-12-20T04:17:22;7.72;;;2.22;;
64959;SDS011;51487;52.266;10.542;2023-12-20T04:19:51;6.05;;;1.80;;
64959;SDS011;51487;52.266;10.542;2023-12-20T04:22:17;4.35;;;1.48;;
64959;SDS011;51487;52.266;10.542;2023-12-20T04:24:44;5.97;;;1.75;;
64959;SDS011;51487;52.266;10.542;2023-12-20T04:27:12;3.72;;;1.58;;
64959;SDS011;51487;52.266;10.542;2023-12-20T04:29:37;3.30;;;1.52;;
64959;SDS011;51487;52.266;10.542;2023-12-20T04:32:04;6.65;;;2.60;;
64959;SDS011;51487;52.266;10.542;2023-12-20T04:34:30;7.53;;;1.70;;
64959;SDS011;51487;52.266;10.542;2023-12-20T04:36:56;2.53;;;1.58;;
64959;SDS011;51487;52.266;10.542;2023-12-20T04:39:21;7.25;;;1.92;;
64959;SDS011;51487;52.266;10.542;2023-12-20T04:41:47;6.82;;;2.08;;
64959;SDS011;51487;52.266;10.542;2023-12-20T04:44:13;3.17;;;1.50;;
64959;SDS011;51487;52.266;10.542;2023-12-20T04:46:38;6.30;;;1.98;;
64959;SDS011;51487;52.266;10.542;2023-12-20T04:49:04;6.32;;;2.22;;
64959;SDS011;51487;52.266;10.542;2023-12-20T04:51:33;3.25;;;1.80;;
64959;SDS011;51487;52.266;10.542;2023-12-20T04:53:59;7.35;;;2.10;;
64959;SDS011;51487;52.266;10.542;2023-12-20T04:56:25;6.18;;;1.85;;
64959;SDS011;51487;52.266;10.542;2023-12-20T04:58:50;19.95;;;2.28;;
64959;SDS011;51487;52.266;10.542;2023-12-20T05:01:16;5.18;;;1.80;;
64959;SDS011;51487;52.266;10.542;2023-12-20T05:03:42;6.25;;;2.05;;
64959;SDS011;51487;52.266;10.542;2023-12-20T05:06:07;6.55;;;1.90;;
64959;SDS011;51487;52.266;10.542;2023-12-20T05:08:33;5.70;;;1.83;;
64959;SDS011;51487;52.266;10.542;2023-12-20T05:10:58;5.55;;;1.88;;
64959;SDS011;51487;52.266;10.542;2023-12-20T05:13:24;5.78;;;2.00;;
64959;SDS011;51487;52.266;10.542;2023-12-20T05:15:49;6.90;;;1.95;;
64959;SDS011;51487;52.266;10.542;2023-12-20T05:18:15;3.55;;;1.98;;
64959;SDS011;51487;52.266;10.542;2023-12-20T05:20:41;6.40;;;1.80;;
64959;SDS011;51487;52.266;10.542;2023-12-20T05:23:07;5.88;;;1.60;;
64959;SDS011;51487;52.266;10.542;2023-12-20T05:25:33;8.52;;;1.90;;
64959;SDS011;51487;52.266;10.542;2023-12-20T05:27:58;5.97;;;1.85;;
64959;SDS011;51487;52.266;10.542;2023-12-20T05:30:24;8.65;;;2.38;;
64959;SDS011;51487;52.266;10.542;2023-12-20T05:32:49;6.35;;;2.03;;
64959;SDS011;51487;52.266;10.542;2023-12-20T05:35:15;5.72;;;1.85;;
64959;SDS011;51487;52.266;10.542;2023-12-20T05:37:41;4.05;;;1.65;;
64959;SDS011;51487;52.266;10.542;2023-12-20T05:40:07;9.27;;;2.45;;
64959;SDS011;51487;52.266;10.542;2023-12-20T05:42:35;11.07;;;2.17;;
64959;SDS011;51487;52.266;10.542;2023-12-20T05:45:02;7.10;;;1.95;;
64959;SDS011;51487;52.266;10.542;2023-12-20T05:47:27;6.82;;;2.03;;
64959;SDS011;51487;52.266;10.542;2023-12-20T05:49:53;6.78;;;2.00;;
64959;SDS011;51487;52.266;10.542;2023-12-20T05:52:18;7.03;;;2.28;;
64959;SDS011;51487;52.266;10.542;2023-12-20T05:54:44;8.65;;;2.25;;
64959;SDS011;51487;52.266;10.542;2023-12-20T05:57:10;9.05;;;2.20;;
64959;SDS011;51487;52.266;10.542;2023-12-20T05:59:35;9.80;;;2.15;;
64959;SDS011;51487;52.266;10.542;2023-12-20T06:02:02;8.38;;;2.38;;
64959;SDS011;51487;52.266;10.542;2023-12-20T06:04:29;7.20;;;2.28;;
64959;SDS011;51487;52.266;10.542;2023-12-20T06:06:55;8.35;;;2.20;;
64959;SDS011;51487;52.266;10.542;2023-12-20T06:09:21;7.82;;;2.40;;
64959;SDS011;51487;52.266;10.542;2023-12-20T06:11:46;6.50;;;2.28;;
64959;SDS011;51487;52.266;10.542;2023-12-20T06:14:11;10.63;;;3.22;;
64959;SDS011;51487;52.266;10.542;2023-12-20T06:16:37;4.65;;;2.10;;
64959;SDS011;51487;52.266;10.542;2023-12-20T06:19:02;14.63;;;2.35;;
64959;SDS011;51487;52.266;10.542;2023-12-20T06:21:28;10.30;;;2.67;;
64959;SDS011;51487;52.266;10.542;2023-12-20T06:23:53;8.68;;;2.25;;
64959;SDS011;51487;52.266;10.542;2023-12-20T06:26:19;7.80;;;2.38;;
64959;SDS011;51487;52.266;10.542;2023-12-20T06:28:45;7.15;;;2.28;;
64959;SDS011;51487;52.266;10.542;2023-12-20T06:31:11;9.80;;;2.38;;
64959;SDS011;51487;52.266;10.542;2023-12-20T06:33:36;4.70;;;2.20;;
64959;SDS011;51487;52.266;10.542;2023-12-20T06:36:02;8.65;;;2.33;;
64959;SDS011;51487;52.266;10.542;2023-12-20T06:38:28;5.60;;;2.30;;
64959;SDS011;51487;52.266;10.542;2023-12-20T06:40:53;9.32;;;2.70;;
64959;SDS011;51487;52.266;10.542;2023-12-20T06:43:19;9.75;;;2.47;;
64959;SDS011;51487;52.266;10.542;2023-12-20T06:45:44;8.98;;;2.63;;
64959;SDS011;51487;52.266;10.542;2023-12-20T06:48:10;8.68;;;2.50;;
64959;SDS011;51487;52.266;10.542;2023-12-20T06:50:38;11.88;;;2.67;;
64959;SDS011;51487;52.266;10.542;2023-12-20T06:53:05;17.85;;;2.85;;
64959;SDS011;51487;52.266;10.542;2023-12-20T06:55:32;12.77;;;2.58;;
64959;SDS011;51487;52.266;10.542;2023-12-20T06:58:00;7.40;;;2.50;;
64959;SDS011;51487;52.266;10.542;2023-12-20T07:00:27;9.95;;;3.15;;
64959;SDS011;51487;52.266;10.542;2023-12-20T07:02:53;6.60;;;2.67;;
64959;SDS011;51487;52.266;10.542;2023-12-20T07:05:18;7.40;;;1.92;;
64959;SDS011;51487;52.266;10.542;2023-12-20T07:07:45;5.38;;;2.17;;
64959;SDS011;51487;52.266;10.542;2023-12-20T07:10:12;10.43;;;2.80;;
64959;SDS011;51487;52.266;10.542;2023-12-20T07:12:38;7.75;;;2.45;;
64959;SDS011;51487;52.266;10.542;2023-12-20T07:15:03;8.38;;;2.85;;
64959;SDS011;51487;52.266;10.542;2023-12-20T07:17:30;11.55;;;2.70;;
64959;SDS011;51487;52.266;10.542;2023-12-20T07:19:58;10.63;;;2.70;;
64959;SDS011;51487;52.266;10.542;2023-12-20T07:22:24;11.43;;;2.88;;
64959;SDS011;51487;52.266;10.542;2023-12-20T07:24:49;11.32;;;3.38;;
64959;SDS011;51487;52.266;10.542;2023-12-20T07:27:17;8.73;;;2.85;;
64959;SDS011;51487;52.266;10.542;2023-12-20T07:29:42;11.82;;;3.13;;
64959;SDS011;51487;52.266;10.542;2023-12-20T07:32:08;7.50;;;2.65;;
64959;SDS011;51487;52.266;10.542;2023-12-20T07:34:34;11.00;;;3.00;;
64959;SDS011;51487;52.266;10.542;2023-12-20T07:36:59;7.78;;;2.67;;
64959;SDS011;51487;52.266;10.542;2023-12-20T07:39:25;14.23;;;3.13;;
64959;SDS011;51487;52.266;10.542;2023-12-20T07:41:50;8.50;;;2.63;;
64959;SDS011;51487;52.266;10.542;2023-12-20T07:44:16;10.73;;;3.15;;
64959;SDS011;51487;52.266;10.542;2023-12-20T07:46:41;12.75;;;3.33;;
64959;SDS011;51487;52.266;10.542;2023-12-20T07:49:06;13.73;;;3.00;;
64959;SDS011;51487;52.266;10.542;2023-12-20T07:51:33;7.97;;;2.55;;
64959;SDS011;51487;52.266;10.542;2023-12-20T07:53:59;9.55;;;3.10;;
64959;SDS011;51487;52.266;10.542;2023-12-20T07:56:24;10.13;;;3.00;;
64959;SDS011;51487;52.266;10.542;2023-12-20T07:58:50;9.13;;;2.88;;
64959;SDS011;51487;52.266;10.542;2023-12-20T08:01:15;12.55;;;3.17;;
64959;SDS011;51487;52.266;10.542;2023-12-20T08:03:43;10.20;;;2.65;;
64959;SDS011;51487;52.266;10.542;2023-12-20T08:06:08;8.55;;;2.65;;
64959;SDS011;51487;52.266;10.542;2023-12-20T08:08:34;8.52;;;2.80;;
64959;SDS011;51487;52.266;10.542;2023-12-20T08:10:59;11.52;;;3.30;;
64959;SDS011;51487;52.266;10.542;2023-12-20T08:13:25;7.97;;;2.55;;
64959;SDS011;51487;52.266;10.542;2023-12-20T08:15:52;6.93;;;2.70;;
64959;SDS011;51487;52.266;10.542;2023-12-20T08:18:18;7.05;;;3.10;;
64959;SDS011;51487;52.266;10.542;2023-12-20T08:20:44;10.75;;;2.72;;
64959;SDS011;51487;52.266;10.542;2023-12-20T08:23:09;12.93;;;3.20;;
64959;SDS011;51487;52.266;10.542;2023-12-20T08:25:35;9.52;;;2.72;;
64959;SDS011;51487;52.266;10.542;2023-12-20T08:28:02;9.38;;;2.78;;
64959;SDS011;51487;52.266;10.542;2023-12-20T08:30:28;11.65;;;3.03;;
64959;SDS011;51487;52.266;10.542;2023-12-20T08:32:54;10.02;;;2.70;;
64959;SDS011;51487;52.266;10.542;2023-12-20T08:35:20;9.63;;;2.78;;
64959;SDS011;51487;52.266;10.542;2023-12-20T08:37:46;9.27;;;2.90;;
64959;SDS011;51487;52.266;10.542;2023-12-20T08:40:11;10.35;;;2.88;;
64959;SDS011;51487;52.266;10.542;2023-12-20T08:42:37;9.85;;;2.55;;
64959;SDS011;51487;52.266;10.542;2023-12-20T08:45:02;6.90;;;2.70;;
64959;SDS011;51487;52.266;10.542;2023-12-20T08:47:29;11.95;;;3.40;;
64959;SDS011;51487;52.266;10.542;2023-12-20T08:49:55;14.05;;;2.90;;
64959;SDS011;51487;52.266;10.542;2023-12-20T08:52:23;14.82;;;3.35;;
64959;SDS011;51487;52.266;10.542;2023-12-20T08:54:49;9.65;;;2.85;;
64959;SDS011;51487;52.266;10.542;2023-12-20T08:57:18;9.32;;;3.05;;
64959;SDS011;51487;52.266;10.542;2023-12-20T08:59:46;11.98;;;2.88;;
64959;SDS011;51487;52.266;10.542;2023-12-20T09:02:13;9.95;;;2.92;;
64959;SDS011;51487;52.266;10.542;2023-12-20T09:04:39;13.15;;;3.00;;
64959;SDS011;51487;52.266;10.542;2023-12-20T09:07:04;8.80;;;3.10;;
64959;SDS011;51487;52.266;10.542;2023-12-20T09:09:30;10.15;;;3.30;;
64959;SDS011;51487;52.266;10.542;2023-12-20T09:11:57;10.38;;;3.03;;
64959;SDS011;51487;52.266;10.542;2023-12-20T09:14:23;9.75;;;2.40;;
64959;SDS011;51487;52.266;10.542;2023-12-20T09:16:49;7.25;;;2.80;;
64959;SDS011;51487;52.266;10.542;2023-12-20T09:19:16;9.77;;;2.60;;
64959;SDS011;51487;52.266;10.542;2023-12-20T09:21:42;9.70;;;2.90;;
64959;SDS011;51487;52.266;10.542;2023-12-20T09:24:08;11.23;;;3.08;;
64959;SDS011;51487;52.266;10.542;2023-12-20T09:26:34;10.98;;;3.10;;
64959;SDS011;51487;52.266;10.542;2023-12-20T09:29:00;10.48;;;3.33;;
64959;SDS011;51487;52.266;10.542;2023-12-20T09:31:25;10.45;;;2.80;;
64959;SDS011;51487;52.266;10.542;2023-12-20T09:33:51;12.90;;;3.50;;
64959;SDS011;51487;52.266;10.542;2023-12-20T09:36:16;10.38;;;3.03;;
64959;SDS011;51487;52.266;10.542;2023-12-20T09:38:42;13.73;;;3.00;;
64959;SDS011;51487;52.266;10.542;2023-12-20T09:41:07;12.20;;;3.13;;
64959;SDS011;51487;52.266;10.542;2023-12-20T09:43:34;10.15;;;3.13;;
64959;SDS011;51487;52.266;10.542;2023-12-20T09:46:03;9.77;;;2.88;;
64959;SDS011;51487;52.266;10.542;2023-12-20T09:48:32;10.60;;;2.88;;
64959;SDS011;51487;52.266;10.542;2023-12-20T09:50:58;8.38;;;2.33;;
64959;SDS011;51487;52.266;10.542;2023-12-20T09:53:24;8.52;;;2.85;;
64959;SDS011;51487;52.266;10.542;2023-12-20T09:55:56;7.80;;;2.80;;
64959;SDS011;51487;52.266;10.542;2023-12-20T09:58:25;8.13;;;2.42;;
64959;SDS011;51487;52.266;10.542;2023-12-20T10:00:51;10.23;;;2.88;;
64959;SDS011;51487;52.266;10.542;2023-12-20T10:03:18;8.98;;;2.95;;
64959;SDS011;51487;52.266;10.542;2023-12-20T10:05:52;9.38;;;2.60;;
64959;SDS011;51487;52.266;10.542;2023-12-20T10:08:21;8.27;;;2.90;;
64959;SDS011;51487;52.266;10.542;2023-12-20T10:10:47;11.95;;;2.88;;
64959;SDS011;51487;52.266;10.542;2023-12-20T10:13:13;7.28;;;2.30;;
64959;SDS011;51487;52.266;10.542;2023-12-20T10:15:40;9.23;;;2.75;;
64959;SDS011;51487;52.266;10.542;2023-12-20T10:18:06;8.75;;;2.70;;
64959;SDS011;51487;52.266;10.542;2023-12-20T10:20:32;10.82;;;2.70;;
64959;SDS011;51487;52.266;10.542;2023-12-20T10:22:58;9.73;;;2.95;;
64959;SDS011;51487;52.266;10.542;2023-12-20T10:25:25;6.85;;;2.63;;
64959;SDS011;51487;52.266;10.542;2023-12-20T10:28:08;8.95;;;2.67;;
64959;SDS011;51487;52.266;10.542;2023-12-20T10:30:36;12.05;;;3.10;;
64959;SDS011;51487;52.266;10.542;2023-12-20T10:33:03;5.40;;;2.40;;
64959;SDS011;51487;52.266;10.542;2023-12-20T10:35:33;10.23;;;2.63;;
64959;SDS011;51487;52.266;10.542;2023-12-20T10:38:00;7.20;;;2.53;;
64959;SDS011;51487;52.266;10.542;2023-12-20T10:40:30;9.48;;;2.20;;
64959;SDS011;51487;52.266;10.542;2023-12-20T10:42:59;8.73;;;2.63;;
64959;SDS011;51487;52.266;10.542;2023-12-20T10:45:27;8.45;;;2.45;;
64959;SDS011;51487;52.266;10.542;2023-12-20T10:47:52;9.57;;;2.70;;
64959;SDS011;51487;52.266;10.542;2023-12-20T10:50:19;10.23;;;2.85;;
64959;SDS011;51487;52.266;10.542;2023-12-20T10:52:46;6.93;;;2.40;;
64959;SDS011;51487;52.266;10.542;2023-12-20T10:55:13;11.35;;;2.33;;
64959;SDS011;51487;52.266;10.542;2023-12-20T10:57:39;12.60;;;3.10;;
64959;SDS011;51487;52.266;10.542;2023-12-20T11:00:05;5.90;;;2.65;;
64959;SDS011;51487;52.266;10.542;2023-12-20T11:02:39;5.65;;;2.30;;
64959;SDS011;51487;52.266;10.542;2023-12-20T11:08:09;6.40;;;2.78;;
64959;SDS011;51487;52.266;10.542;2023-12-20T11:10:42;7.80;;;2.22;;
64959;SDS011;51487;52.266;10.542;2023-12-20T11:13:23;10.98;;;3.08;;
64959;SDS011;51487;52.266;10.542;2023-12-20T11:15:57;7.47;;;2.72;;
64959;SDS011;51487;52.266;10.542;2023-12-20T11:18:30;6.97;;;2.67;;
64959;SDS011;51487;52.266;10.542;2023-12-20T11:21:04;10.95;;;3.35;;
64959;SDS011;51487;52.266;10.542;2023-12-20T11:23:30;9.63;;;3.25;;
64959;SDS011;51487;52.266;10.542;2023-12-20T11:25:59;11.07;;;2.85;;
64959;SDS011;51487;52.266;10.542;2023-12-20T11:28:26;6.15;;;2.55;;
64959;SDS011;51487;52.266;10.542;2023-12-20T11:30:53;10.27;;;3.53;;
64959;SDS011;51487;52.266;10.542;2023-12-20T11:33:21;8.23;;;3.00;;
64959;SDS011;51487;52.266;10.542;2023-12-20T11:35:49;7.45;;;2.83;;
64959;SDS011;51487;52.266;10.542;2023-12-20T11:38:15;9.98;;;2.92;;
64959;SDS011;51487;52.266;10.542;2023-12-20T11:40:41;5.57;;;3.05;;
64959;SDS011;51487;52.266;10.542;2023-12-20T11:43:08;8.65;;;3.05;;
64959;SDS011;51487;52.266;10.542;2023-12-20T11:45:34;11.05;;;3.63;;
64959;SDS011;51487;52.266;10.542;2023-12-20T11:48:01;8.65;;;2.90;;
64959;SDS011;51487;52.266;10.542;2023-12-20T11:50:28;8.23;;;2.80;;
64959;SDS011;51487;52.266;10.542;2023-12-20T11:52:55;8.60;;;3.15;;
64959;SDS011;51487;52.266;10.542;2023-12-20T11:55:22;11.40;;;3.90;;
64959;SDS011;51487;52.266;10.542;2023-12-20T11:57:49;8.23;;;2.90;;
64959;SDS011;51487;52.266;10.542;2023-12-20T12:00:16;7.78;;;3.00;;
64959;SDS011;51487;52.266;10.542;2023-12-20T12:02:45;6.57;;;2.95;;
64959;SDS011;51487;52.266;10.542;2023-12-20T12:05:21;5.28;;;3.40;;
64959;SDS011;51487;52.266;10.542;2023-12-20T12:07:47;7.90;;;3.47;;
64959;SDS011;51487;52.266;10.542;2023-12-20T12:10:12;6.65;;;2.95;;
64959;SDS011;51487;52.266;10.542;2023-12-20T12:12:38;8.32;;;3.00;;
64959;SDS011;51487;52.266;10.542;2023-12-20T12:15:04;9.35;;;2.78;;
64959;SDS011;51487;52.266;10.542;2023-12-20T12:17:31;6.22;;;3.05;;
64959;SDS011;51487;52.266;10.542;2023-12-20T12:20:03;5.57;;;3.00;;
64959;SDS011;51487;52.266;10.542;2023-12-20T12:22:30;8.50;;;3.15;;
64959;SDS011;51487;52.266;10.542;2023-12-20T12:24:59;6.60;;;2.95;;
64959;SDS011;51487;52.266;10.542;2023-12-20T12:27:35;7.07;;;3.13;;
64959;SDS011;51487;52.266;10.542;2023-12-20T12:30:01;6.85;;;3.10;;
64959;SDS011;51487;52.266;10.542;2023-12-20T12:32:29;7.90;;;2.90;;
64959;SDS011;51487;52.266;10.542;2023-12-20T12:34:54;7.90;;;2.97;;
64959;SDS011;51487;52.266;10.542;2023-12-20T12:37:20;8.85;;;3.20;;
64959;SDS011;51487;52.266;10.542;2023-12-20T12:39:48;6.63;;;2.67;;
64959;SDS011;51487;52.266;10.542;2023-12-20T12:42:14;9.02;;;2.55;;
64959;SDS011;51487;52.266;10.542;2023-12-20T12:44:40;7.68;;;2.58;;
64959;SDS011;51487;52.266;10.542;2023-12-20T12:47:05;8.63;;;2.63;;
64959;SDS011;51487;52.266;10.542;2023-12-20T12:49:31;8.02;;;2.78;;
64959;SDS011;51487;52.266;10.542;2023-12-20T12:51:57;8.65;;;3.05;;
64959;SDS011;51487;52.266;10.542;2023-12-20T12:54:23;6.35;;;2.60;;
64959;SDS011;51487;52.266;10.542;2023-12-20T12:56:49;7.00;;;2.50;;
64959;SDS011;51487;52.266;10.542;2023-12-20T12:59:15;3.58;;;1.52;;
64959;SDS011;51487;52.266;10.542;2023-12-20T13:01:41;3.10;;;1.50;;
64959;SDS011;51487;52.266;10.542;2023-12-20T13:04:08;1.95;;;1.33;;
64959;SDS011;51487;52.266;10.542;2023-12-20T13:06:36;4.60;;;1.88;;
64959;SDS011;51487;52.266;10.542;2023-12-20T13:09:03;2.63;;;1.70;;
64959;SDS011;51487;52.266;10.542;2023-12-20T13:11:29;4.68;;;1.73;;
64959;SDS011;51487;52.266;10.542;2023-12-20T13:13:56;6.47;;;1.75;;
64959;SDS011;51487;52.266;10.542;2023-12-20T13:16:25;1.73;;;1.50;;
64959;SDS011;51487;52.266;10.542;2023-12-20T13:18:51;2.00;;;1.40;;
64959;SDS011;51487;52.266;10.542;2023-12-20T13:21:17;2.75;;;1.20;;
64959;SDS011;51487;52.266;10.542;2023-12-20T13:23:43;7.05;;;2.17;;
64959;SDS011;51487;52.266;10.542;2023-12-20T13:26:08;3.63;;;1.60;;
64959;SDS011;51487;52.266;10.542;2023-12-20T13:28:34;4.15;;;1.67;;
64959;SDS011;51487;52.266;10.542;2023-12-20T13:30:59;1.95;;;1.30;;
64959;SDS011;51487;52.266;10.542;2023-12-20T13:33:25;3.00;;;1.60;;
64959;SDS011;51487;52.266;10.542;2023-12-20T13:35:50;4.32;;;1.60;;
64959;SDS011;51487;52.266;10.542;2023-12-20T13:38:16;5.47;;;1.73;;
64959;SDS011;51487;52.266;10.542;2023-12-20T13:40:42;2.10;;;1.40;;
64959;SDS011;51487;52.266;10.542;2023-12-20T13:43:08;5.97;;;2.33;;
64959;SDS011;51487;52.266;10.542;2023-12-20T13:45:35;5.57;;;1.92;;
64959;SDS011;51487;52.266;10.542;2023-12-20T13:48:01;3.15;;;1.50;;
64959;SDS011;51487;52.266;10.542;2023-12-20T13:50:26;3.95;;;1.52;;
64959;SDS011;51487;52.266;10.542;2023-12-20T13:52:52;3.78;;;1.50;;
64959;SDS011;51487;52.266;10.542;2023-12-20T13:55:17;4.35;;;1.63;;
64959;SDS011;51487;52.266;10.542;2023-12-20T13:57:46;3.35;;;1.40;;
64959;SDS011;51487;52.266;10.542;2023-12-20T14:00:13;2.10;;;1.30;;
64959;SDS011;51487;52.266;10.542;2023-12-20T14:02:42;4.30;;;1.55;;
64959;SDS011;51487;52.266;10.542;2023-12-20T14:05:08;3.65;;;1.70;;
64959;SDS011;51487;52.266;10.542;2023-12-20T14:07:35;2.88;;;1.35;;
64959;SDS011;51487;52.266;10.542;2023-12-20T14:10:01;8.45;;;1.65;;
64959;SDS011;51487;52.266;10.542;2023-12-20T14:12:26;4.07;;;1.77;;
64959;SDS011;51487;52.266;10.542;2023-12-20T14:14:52;4.65;;;1.60;;
64959;SDS011;51487;52.266;10.542;2023-12-20T14:17:17;4.10;;;1.63;;
64959;SDS011;51487;52.266;10.542;2023-12-20T14:19:43;5.10;;;1.63;;
64959;SDS011;51487;52.266;10.542;2023-12-20T14:22:08;3.25;;;1.42;;
64959;SDS011;51487;52.266;10.542;2023-12-20T14:24:35;4.47;;;1.85;;
64959;SDS011;51487;52.266;10.542;2023-12-20T14:27:01;4.35;;;1.70;;
64959;SDS011;51487;52.266;10.542;2023-12-20T14:29:27;3.40;;;1.90;;